sensor_id;sensor_type;location;lat;lon;timestamp;pressure;altitude;pressure_sealevel;temperature;humidity
11001;BME280;5553;48.506;8.870;2023-03-15T00:22:19;96169.03;;;-0.01;100.00
11001;BME280;5553;48.506;8.870;2023-03-15T00:24:47;96170.78;;;-0.11;100.00
11001;BME280;5553;48.506;8.870;2023-03-15T00:27:16;96178.59;;;-0.01;100.00
11001;BME280;5553;48.506;8.870;2023-03-15T00:29:44;96182.97;;;-0.02;100.00
11001;BME280;5553;48.506;8.870;2023-03-15T00:32:12;96183.09;;;0.07;100.00
11001;BME280;5553;48.506;8.870;2023-03-15T00:34:41;96185.81;;;-0.05;100.00
11001;BME280;5553;48.506;8.870;2023-03-15T00:37:13;96190.75;;;-0.02;100.00
11001;BME280;5553;48.506;8.870;2023-03-15T00:39:44;96197.94;;;-0.15;100.00
11001;BME280;5553;48.506;8.870;2023-03-15T00:42:13;96198.22;;;-0.18;100.00
11001;BME280;5553;48.506;8.870;2023-03-15T00:44:43;96187.13;;;-0.30;100.00
11001;BME280;5553;48.506;8.870;2023-03-15T00:47:13;96180.44;;;-0.32;100.00
11001;BME280;5553;48.506;8.870;2023-03-15T00:49:41;96186.56;;;-0.33;100.00
11001;BME280;5553;48.506;8.870;2023-03-15T00:52:10;96188.72;;;-0.38;100.00
11001;BME280;5553;48.506;8.870;2023-03-15T00:54:39;96194.06;;;-0.40;100.00
11001;BME280;5553;48.506;8.870;2023-03-15T00:57:10;96198.03;;;-0.36;100.00
11001;BME280;5553;48.506;8.870;2023-03-15T00:59:38;96193.66;;;-0.35;100.00
11001;BME280;5553;48.506;8.870;2023-03-15T01:02:10;96204.28;;;-0.38;100.00
11001;BME280;5553;48.506;8.870;2023-03-15T01:04:38;96202.41;;;-0.36;100.00
11001;BME280;5553;48.506;8.870;2023-03-15T01:07:07;96207.56;;;-0.36;100.00
11001;BME280;5553;48.506;8.870;2023-03-15T01:09:36;96210.84;;;-0.34;100.00
11001;BME280;5553;48.506;8.870;2023-03-15T01:12:05;96214.13;;;-0.32;100.00
11001;BME280;5553;48.506;8.870;2023-03-15T01:14:36;96205.91;;;-0.47;100.00
11001;BME280;5553;48.506;8.870;2023-03-15T01:17:05;96210.78;;;-0.54;100.00
11001;BME280;5553;48.506;8.870;2023-03-15T01:19:33;96225.47;;;-0.64;100.00
11001;BME280;5553;48.506;8.870;2023-03-15T01:22:01;96224.91;;;-0.67;100.00
11001;BME280;5553;48.506;8.870;2023-03-15T01:24:29;96225.72;;;-0.67;100.00
11001;BME280;5553;48.506;8.870;2023-03-15T01:26:57;96230.75;;;-0.65;100.00
11001;BME280;5553;48.506;8.870;2023-03-15T01:29:26;96235.31;;;-0.58;100.00
11001;BME280;5553;48.506;8.870;2023-03-15T01:31:57;96243.09;;;-0.58;100.00
11001;BME280;5553;48.506;8.870;2023-03-15T01:34:25;96235.94;;;-0.44;100.00
11001;BME280;5553;48.506;8.870;2023-03-15T01:36:53;96234.47;;;-0.58;100.00
11001;BME280;5553;48.506;8.870;2023-03-15T01:39:21;96245.69;;;-0.58;100.00
11001;BME280;5553;48.506;8.870;2023-03-15T01:41:50;96238.03;;;-0.59;100.00
11001;BME280;5553;48.506;8.870;2023-03-15T01:44:18;96245.94;;;-0.61;100.00
11001;BME280;5553;48.506;8.870;2023-03-15T01:46:48;96241.97;;;-0.65;100.00
11001;BME280;5553;48.506;8.870;2023-03-15T01:49:22;96240.47;;;-0.67;100.00
11001;BME280;5553;48.506;8.870;2023-03-15T01:51:56;96239.38;;;-0.65;100.00
11001;BME280;5553;48.506;8.870;2023-03-15T01:54:28;96234.94;;;-0.53;100.00
11001;BME280;5553;48.506;8.870;2023-03-15T01:57:00;96242.41;;;-0.60;100.00
11001;BME280;5553;48.506;8.870;2023-03-15T01:59:34;96238.25;;;-0.41;100.00
11001;BME280;5553;48.506;8.870;2023-03-15T02:02:04;96238.63;;;-0.46;100.00
11001;BME280;5553;48.506;8.870;2023-03-15T02:04:40;96248.13;;;-0.56;100.00
11001;BME280;5553;48.506;8.870;2023-03-15T02:07:12;96246.38;;;-0.56;100.00
11001;BME280;5553;48.506;8.870;2023-03-15T02:09:48;96247.56;;;-0.60;100.00
11001;BME280;5553;48.506;8.870;2023-03-15T02:12:19;96251.13;;;-0.61;100.00
11001;BME280;5553;48.506;8.870;2023-03-15T02:14:48;96249.56;;;-0.73;100.00
11001;BME280;5553;48.506;8.870;2023-03-15T02:17:21;96256.34;;;-0.82;100.00
11001;BME280;5553;48.506;8.870;2023-03-15T02:20:01;96259.50;;;-0.78;100.00
11001;BME280;5553;48.506;8.870;2023-03-15T02:22:38;96262.69;;;-0.86;100.00
11001;BME280;5553;48.506;8.870;2023-03-15T02:25:16;96259.09;;;-0.94;100.00
11001;BME280;5553;48.506;8.870;2023-03-15T02:27:50;96271.59;;;-1.00;100.00
11001;BME280;5553;48.506;8.870;2023-03-15T02:30:19;96273.94;;;-0.97;100.00
11001;BME280;5553;48.506;8.870;2023-03-15T02:32:47;96274.19;;;-1.00;100.00
11001;BME280;5553;48.506;8.870;2023-03-15T02:35:23;96273.00;;;-0.96;100.00
11001;BME280;5553;48.506;8.870;2023-03-15T02:37:51;96266.25;;;-0.87;100.00
11001;BME280;5553;48.506;8.870;2023-03-15T02:40:22;96265.66;;;-0.90;100.00
11001;BME280;5553;48.506;8.870;2023-03-15T02:42:56;96277.31;;;-0.85;100.00
11001;BME280;5553;48.506;8.870;2023-03-15T02:45:28;96267.84;;;-0.96;100.00
11001;BME280;5553;48.506;8.870;2023-03-15T02:47:59;96281.09;;;-0.89;100.00
11001;BME280;5553;48.506;8.870;2023-03-15T02:50:29;96292.06;;;-0.97;100.00
11001;BME280;5553;48.506;8.870;2023-03-15T02:52:57;96292.06;;;-0.97;100.00
11001;BME280;5553;48.506;8.870;2023-03-15T02:55:27;96295.63;;;-0.98;100.00
11001;BME280;5553;48.506;8.870;2023-03-15T02:58:00;96300.31;;;-0.91;100.00
11001;BME280;5553;48.506;8.870;2023-03-15T03:00:28;96303.78;;;-1.02;100.00
11001;BME280;5553;48.506;8.870;2023-03-15T03:02:56;96310.59;;;-1.01;100.00
11001;BME280;5553;48.506;8.870;2023-03-15T03:05:25;96306.38;;;-1.02;100.00
11001;BME280;5553;48.506;8.870;2023-03-15T03:07:54;96313.34;;;-1.14;100.00
11001;BME280;5553;48.506;8.870;2023-03-15T03:10:23;96319.22;;;-1.12;100.00
11001;BME280;5553;48.506;8.870;2023-03-15T03:12:51;96320.13;;;-1.02;100.00
11001;BME280;5553;48.506;8.870;2023-03-15T03:15:22;96323.06;;;-1.06;100.00
11001;BME280;5553;48.506;8.870;2023-03-15T03:17:50;96332.13;;;-1.33;100.00
11001;BME280;5553;48.506;8.870;2023-03-15T03:20:19;96342.38;;;-1.42;100.00
11001;BME280;5553;48.506;8.870;2023-03-15T03:22:47;96343.09;;;-1.52;100.00
11001;BME280;5553;48.506;8.870;2023-03-15T03:25:16;96348.50;;;-1.55;100.00
11001;BME280;5553;48.506;8.870;2023-03-15T03:27:44;96357.69;;;-1.62;100.00
11001;BME280;5553;48.506;8.870;2023-03-15T03:30:13;96362.19;;;-1.64;100.00
11001;BME280;5553;48.506;8.870;2023-03-15T03:32:44;96368.75;;;-1.71;100.00
11001;BME280;5553;48.506;8.870;2023-03-15T03:35:12;96384.06;;;-1.79;100.00
11001;BME280;5553;48.506;8.870;2023-03-15T03:37:40;96374.44;;;-1.77;100.00
11001;BME280;5553;48.506;8.870;2023-03-15T03:40:12;96387.22;;;-1.64;100.00
11001;BME280;5553;48.506;8.870;2023-03-15T03:42:40;96391.56;;;-1.65;100.00
11001;BME280;5553;48.506;8.870;2023-03-15T03:45:09;96388.31;;;-1.67;100.00
11001;BME280;5553;48.506;8.870;2023-03-15T03:47:38;96396.75;;;-1.76;100.00
11001;BME280;5553;48.506;8.870;2023-03-15T03:50:10;96400.75;;;-1.83;100.00
11001;BME280;5553;48.506;8.870;2023-03-15T03:52:38;96410.97;;;-1.93;100.00
11001;BME280;5553;48.506;8.870;2023-03-15T03:55:08;96408.63;;;-1.96;100.00
11001;BME280;5553;48.506;8.870;2023-03-15T03:57:37;96410.84;;;-1.92;100.00
11001;BME280;5553;48.506;8.870;2023-03-15T04:00:07;96418.38;;;-1.88;100.00
11001;BME280;5553;48.506;8.870;2023-03-15T04:02:36;96425.69;;;-1.71;100.00
11001;BME280;5553;48.506;8.870;2023-03-15T04:05:10;96428.16;;;-1.70;100.00
11001;BME280;5553;48.506;8.870;2023-03-15T04:07:38;96428.97;;;-1.69;100.00
11001;BME280;5553;48.506;8.870;2023-03-15T04:10:07;96435.56;;;-1.65;100.00
11001;BME280;5553;48.506;8.870;2023-03-15T04:12:39;96430.88;;;-1.60;100.00
11001;BME280;5553;48.506;8.870;2023-03-15T04:15:08;96428.06;;;-1.57;100.00
11001;BME280;5553;48.506;8.870;2023-03-15T04:17:36;96428.63;;;-1.53;100.00
11001;BME280;5553;48.506;8.870;2023-03-15T04:20:05;96434.41;;;-1.50;100.00
11001;BME280;5553;48.506;8.870;2023-03-15T04:22:39;96426.41;;;-1.47;100.00
11001;BME280;5553;48.506;8.870;2023-03-15T04:25:13;96432.72;;;-1.51;100.00
11001;BME280;5553;48.506;8.870;2023-03-15T04:27:42;96431.31;;;-1.55;100.00
11001;BME280;5553;48.506;8.870;2023-03-15T04:30:11;96432.75;;;-1.62;100.00
11001;BME280;5553;48.506;8.870;2023-03-15T04:32:39;96448.41;;;-1.63;100.00
11001;BME280;5553;48.506;8.870;2023-03-15T04:35:08;96460.63;;;-1.65;100.00
11001;BME280;5553;48.506;8.870;2023-03-15T04:37:39;96455.91;;;-1.72;100.00
11001;BME280;5553;48.506;8.870;2023-03-15T04:40:09;96455.78;;;-1.81;100.00
11001;BME280;5553;48.506;8.870;2023-03-15T04:42:37;96458.03;;;-1.77;100.00
11001;BME280;5553;48.506;8.870;2023-03-15T04:45:06;96463.19;;;-1.88;100.00
11001;BME280;5553;48.506;8.870;2023-03-15T04:47:35;96459.75;;;-1.88;100.00
11001;BME280;5553;48.506;8.870;2023-03-15T04:50:05;96454.88;;;-2.16;100.00
11001;BME280;5553;48.506;8.870;2023-03-15T04:52:33;96457.47;;;-2.16;100.00
11001;BME280;5553;48.506;8.870;2023-03-15T04:55:05;96459.22;;;-2.27;100.00
11001;BME280;5553;48.506;8.870;2023-03-15T04:57:33;96465.00;;;-2.24;100.00
11001;BME280;5553;48.506;8.870;2023-03-15T05:00:03;96469.56;;;-2.27;100.00
11001;BME280;5553;48.506;8.870;2023-03-15T05:02:32;96471.47;;;-2.18;100.00
11001;BME280;5553;48.506;8.870;2023-03-15T05:05:04;96479.34;;;-2.20;100.00
11001;BME280;5553;48.506;8.870;2023-03-15T05:07:33;96477.81;;;-2.22;100.00
11001;BME280;5553;48.506;8.870;2023-03-15T05:10:05;96472.88;;;-2.25;100.00
11001;BME280;5553;48.506;8.870;2023-03-15T05:12:33;96477.44;;;-2.29;100.00
11001;BME280;5553;48.506;8.870;2023-03-15T05:15:02;96478.13;;;-2.27;100.00
11001;BME280;5553;48.506;8.870;2023-03-15T05:17:30;96474.38;;;-2.23;100.00
11001;BME280;5553;48.506;8.870;2023-03-15T05:19:59;96478.50;;;-2.20;100.00
11001;BME280;5553;48.506;8.870;2023-03-15T05:22:32;96476.16;;;-2.23;100.00
11001;BME280;5553;48.506;8.870;2023-03-15T05:25:00;96479.00;;;-2.15;100.00
11001;BME280;5553;48.506;8.870;2023-03-15T05:27:31;96476.44;;;-2.04;100.00
11001;BME280;5553;48.506;8.870;2023-03-15T05:29:59;96473.72;;;-2.02;100.00
11001;BME280;5553;48.506;8.870;2023-03-15T05:32:28;96476.59;;;-1.94;100.00
11001;BME280;5553;48.506;8.870;2023-03-15T05:34:59;96477.50;;;-1.95;100.00
11001;BME280;5553;48.506;8.870;2023-03-15T05:37:27;96482.56;;;-1.94;100.00
11001;BME280;5553;48.506;8.870;2023-03-15T05:39:57;96481.03;;;-1.96;100.00
11001;BME280;5553;48.506;8.870;2023-03-15T05:42:26;96480.19;;;-2.08;100.00
11001;BME280;5553;48.506;8.870;2023-03-15T05:44:57;96477.38;;;-2.05;100.00
11001;BME280;5553;48.506;8.870;2023-03-15T05:47:25;96478.44;;;-2.07;100.00
11001;BME280;5553;48.506;8.870;2023-03-15T05:49:53;96481.47;;;-2.13;100.00
11001;BME280;5553;48.506;8.870;2023-03-15T05:52:22;96482.72;;;-2.19;100.00
11001;BME280;5553;48.506;8.870;2023-03-15T05:54:50;96480.88;;;-2.06;100.00
11001;BME280;5553;48.506;8.870;2023-03-15T05:57:18;96482.69;;;-1.95;100.00
11001;BME280;5553;48.506;8.870;2023-03-15T05:59:47;96475.63;;;-2.04;100.00
11001;BME280;5553;48.506;8.870;2023-03-15T06:02:17;96482.56;;;-2.05;100.00
11001;BME280;5553;48.506;8.870;2023-03-15T06:04:46;96484.44;;;-2.07;100.00
11001;BME280;5553;48.506;8.870;2023-03-15T06:07:14;96490.22;;;-1.92;100.00
11001;BME280;5553;48.506;8.870;2023-03-15T06:09:42;96493.88;;;-1.83;100.00
11001;BME280;5553;48.506;8.870;2023-03-15T06:12:11;96492.47;;;-1.76;100.00
11001;BME280;5553;48.506;8.870;2023-03-15T06:14:39;96496.25;;;-1.69;100.00
11001;BME280;5553;48.506;8.870;2023-03-15T06:17:07;96489.88;;;-1.65;100.00
11001;BME280;5553;48.506;8.870;2023-03-15T06:19:38;96501.66;;;-1.61;100.00
11001;BME280;5553;48.506;8.870;2023-03-15T06:29:31;96511.69;;;-1.56;100.00
11001;BME280;5553;48.506;8.870;2023-03-15T07:21:27;96525.34;;;0.61;100.00
11001;BME280;5553;48.506;8.870;2023-03-15T07:23:55;96521.25;;;0.59;100.00
11001;BME280;5553;48.506;8.870;2023-03-15T07:26:23;96511.03;;;0.67;100.00
11001;BME280;5553;48.506;8.870;2023-03-15T07:28:52;96507.63;;;1.07;100.00
11001;BME280;5553;48.506;8.870;2023-03-15T07:31:20;96498.47;;;1.03;100.00
11001;BME280;5553;48.506;8.870;2023-03-15T07:33:48;96500.28;;;1.22;100.00
11001;BME280;5553;48.506;8.870;2023-03-15T07:36:16;96517.13;;;1.47;100.00
11001;BME280;5553;48.506;8.870;2023-03-15T07:38:49;96514.66;;;1.35;100.00
11001;BME280;5553;48.506;8.870;2023-03-15T07:41:17;96520.97;;;1.42;100.00
11001;BME280;5553;48.506;8.870;2023-03-15T07:43:46;96517.75;;;1.10;100.00
11001;BME280;5553;48.506;8.870;2023-03-15T07:46:14;96514.66;;;1.35;100.00
11001;BME280;5553;48.506;8.870;2023-03-15T07:48:42;96518.34;;;1.33;100.00
11001;BME280;5553;48.506;8.870;2023-03-15T07:51:10;96522.91;;;1.40;100.00
11001;BME280;5553;48.506;8.870;2023-03-15T07:53:39;96520.72;;;1.55;100.00
11001;BME280;5553;48.506;8.870;2023-03-15T07:56:10;96518.81;;;1.67;100.00
11001;BME280;5553;48.506;8.870;2023-03-15T07:58:38;96516.34;;;1.75;100.00
11001;BME280;5553;48.506;8.870;2023-03-15T08:01:06;96510.72;;;1.70;100.00
11001;BME280;5553;48.506;8.870;2023-03-15T08:03:34;96516.91;;;1.88;100.00
11001;BME280;5553;48.506;8.870;2023-03-15T08:06:03;96516.09;;;1.78;100.00
11001;BME280;5553;48.506;8.870;2023-03-15T08:08:31;96511.28;;;1.83;100.00
11001;BME280;5553;48.506;8.870;2023-03-15T08:11:00;96515.50;;;2.23;100.00
11001;BME280;5553;48.506;8.870;2023-03-15T08:13:31;96516.03;;;2.36;100.00
11001;BME280;5553;48.506;8.870;2023-03-15T08:15:59;96513.03;;;2.31;100.00
11001;BME280;5553;48.506;8.870;2023-03-15T08:18:27;96520.91;;;2.59;100.00
11001;BME280;5553;48.506;8.870;2023-03-15T08:20:56;96498.63;;;2.47;100.00
11001;BME280;5553;48.506;8.870;2023-03-15T08:23:24;96509.94;;;2.65;100.00
11001;BME280;5553;48.506;8.870;2023-03-15T08:25:52;96509.88;;;2.84;100.00
11001;BME280;5553;48.506;8.870;2023-03-15T08:28:21;96501.59;;;3.17;100.00
11001;BME280;5553;48.506;8.870;2023-03-15T08:30:51;96488.91;;;2.76;100.00
11001;BME280;5553;48.506;8.870;2023-03-15T08:33:20;96469.66;;;3.15;100.00
11001;BME280;5553;48.506;8.870;2023-03-15T08:35:51;96474.03;;;3.14;100.00
11001;BME280;5553;48.506;8.870;2023-03-15T08:38:20;96470.19;;;3.18;100.00
11001;BME280;5553;48.506;8.870;2023-03-15T08:40:54;96475.50;;;3.44;100.00
11001;BME280;5553;48.506;8.870;2023-03-15T08:43:23;96471.25;;;3.61;100.00
11001;BME280;5553;48.506;8.870;2023-03-15T08:45:54;96464.91;;;3.28;100.00
11001;BME280;5553;48.506;8.870;2023-03-15T08:48:23;96488.72;;;3.78;100.00
11001;BME280;5553;48.506;8.870;2023-03-15T08:50:51;96474.22;;;3.30;100.00
11001;BME280;5553;48.506;8.870;2023-03-15T08:53:19;96500.19;;;3.86;100.00
11001;BME280;5553;48.506;8.870;2023-03-15T08:55:48;96482.59;;;3.88;100.00
11001;BME280;5553;48.506;8.870;2023-03-15T08:58:16;96494.22;;;4.11;100.00
11001;BME280;5553;48.506;8.870;2023-03-15T09:00:44;96470.47;;;3.15;100.00
11001;BME280;5553;48.506;8.870;2023-03-15T09:03:15;96486.00;;;2.79;100.00
11001;BME280;5553;48.506;8.870;2023-03-15T09:05:44;96489.50;;;3.25;100.00
11001;BME280;5553;48.506;8.870;2023-03-15T09:08:12;96500.34;;;4.02;100.00
11001;BME280;5553;48.506;8.870;2023-03-15T09:10:42;96487.38;;;3.74;100.00
11001;BME280;5553;48.506;8.870;2023-03-15T09:13:10;96500.19;;;3.86;100.00
11001;BME280;5553;48.506;8.870;2023-03-15T09:15:39;96500.94;;;3.60;100.00
11001;BME280;5553;48.506;8.870;2023-03-15T09:18:07;96487.94;;;3.32;100.00
11001;BME280;5553;48.506;8.870;2023-03-15T09:20:38;96487.22;;;3.58;100.00
11001;BME280;5553;48.506;8.870;2023-03-15T09:23:06;96493.72;;;3.72;100.00
11001;BME280;5553;48.506;8.870;2023-03-15T09:25:34;96481.69;;;3.25;100.00
11001;BME280;5553;48.506;8.870;2023-03-15T09:28:03;96476.75;;;2.95;100.00
11001;BME280;5553;48.506;8.870;2023-03-15T09:30:32;96476.06;;;2.93;100.00
11001;BME280;5553;48.506;8.870;2023-03-15T09:33:00;96467.00;;;2.97;98.43
11001;BME280;5553;48.506;8.870;2023-03-15T09:35:29;96489.66;;;3.95;98.90
11001;BME280;5553;48.506;8.870;2023-03-15T09:38:00;96486.00;;;4.50;98.08
11001;BME280;5553;48.506;8.870;2023-03-15T09:40:30;96468.81;;;4.47;94.55
11001;BME280;5553;48.506;8.870;2023-03-15T09:43:03;96455.03;;;4.63;91.98
11001;BME280;5553;48.506;8.870;2023-03-15T09:45:49;96459.25;;;4.90;90.98
11001;BME280;5553;48.506;8.870;2023-03-15T09:48:24;96416.81;;;5.05;86.05
11001;BME280;5553;48.506;8.870;2023-03-15T09:51:01;96432.03;;;4.41;88.01
11001;BME280;5553;48.506;8.870;2023-03-15T09:53:37;96412.69;;;4.25;85.30
11001;BME280;5553;48.506;8.870;2023-03-15T09:56:19;96418.63;;;4.36;84.84
11001;BME280;5553;48.506;8.870;2023-03-15T09:58:51;96437.09;;;5.11;85.81
11001;BME280;5553;48.506;8.870;2023-03-15T10:01:24;96430.31;;;5.42;83.31
11001;BME280;5553;48.506;8.870;2023-03-15T10:03:55;96408.00;;;5.14;81.39
11001;BME280;5553;48.506;8.870;2023-03-15T10:06:27;96426.09;;;4.99;82.94
11001;BME280;5553;48.506;8.870;2023-03-15T10:09:05;96414.78;;;4.82;82.45
11001;BME280;5553;48.506;8.870;2023-03-15T10:11:41;96422.06;;;4.10;82.39
11001;BME280;5553;48.506;8.870;2023-03-15T10:14:23;96427.66;;;4.75;82.42
11001;BME280;5553;48.506;8.870;2023-03-15T10:16:53;96439.28;;;5.23;82.15
11001;BME280;5553;48.506;8.870;2023-03-15T10:19:30;96416.69;;;5.22;79.59
11001;BME280;5553;48.506;8.870;2023-03-15T10:22:02;96450.50;;;5.99;81.76
11001;BME280;5553;48.506;8.870;2023-03-15T10:24:40;96441.00;;;6.23;80.00
11001;BME280;5553;48.506;8.870;2023-03-15T10:27:18;96422.34;;;5.85;78.17
11001;BME280;5553;48.506;8.870;2023-03-15T10:29:48;96464.75;;;6.29;81.84
11001;BME280;5553;48.506;8.870;2023-03-15T10:32:20;96471.59;;;6.47;81.72
11001;BME280;5553;48.506;8.870;2023-03-15T10:34:51;96432.81;;;6.01;78.78
11001;BME280;5553;48.506;8.870;2023-03-15T10:37:22;96428.06;;;5.72;78.83
11001;BME280;5553;48.506;8.870;2023-03-15T10:39:56;96415.69;;;5.15;79.80
11001;BME280;5553;48.506;8.870;2023-03-15T10:42:27;96431.81;;;5.61;79.16
11001;BME280;5553;48.506;8.870;2023-03-15T10:44:55;96430.88;;;5.12;80.54
11001;BME280;5553;48.506;8.870;2023-03-15T10:47:25;96440.03;;;5.99;79.52
11001;BME280;5553;48.506;8.870;2023-03-15T10:49:57;96430.06;;;5.19;79.93
11001;BME280;5553;48.506;8.870;2023-03-15T10:52:37;96434.28;;;5.71;79.34
11001;BME280;5553;48.506;8.870;2023-03-15T10:55:11;96476.34;;;6.43;82.84
11001;BME280;5553;48.506;8.870;2023-03-15T10:57:50;96427.00;;;4.82;79.73
11001;BME280;5553;48.506;8.870;2023-03-15T11:00:25;96454.75;;;6.08;80.81
11001;BME280;5553;48.506;8.870;2023-03-15T11:03:03;96439.31;;;6.38;79.13
11001;BME280;5553;48.506;8.870;2023-03-15T11:05:39;96418.06;;;6.08;76.60
11001;BME280;5553;48.506;8.870;2023-03-15T11:08:11;96434.59;;;6.89;78.11
11001;BME280;5553;48.506;8.870;2023-03-15T11:10:43;96455.00;;;7.10;78.35
11001;BME280;5553;48.506;8.870;2023-03-15T11:13:17;96426.13;;;7.41;76.78
11001;BME280;5553;48.506;8.870;2023-03-15T11:15:53;96395.09;;;6.35;76.05
11001;BME280;5553;48.506;8.870;2023-03-15T11:18:27;96408.88;;;6.29;77.47
11001;BME280;5553;48.506;8.870;2023-03-15T11:20:57;96409.25;;;6.01;77.22
11001;BME280;5553;48.506;8.870;2023-03-15T11:23:28;96401.53;;;5.67;76.56
11001;BME280;5553;48.506;8.870;2023-03-15T11:26:02;96399.56;;;5.53;76.87
11001;BME280;5553;48.506;8.870;2023-03-15T11:28:32;96431.97;;;5.52;79.06
11001;BME280;5553;48.506;8.870;2023-03-15T11:31:03;96459.94;;;5.84;81.08
11001;BME280;5553;48.506;8.870;2023-03-15T11:33:38;96424.75;;;5.37;78.40
11001;BME280;5553;48.506;8.870;2023-03-15T11:36:13;96452.47;;;6.13;80.47
11001;BME280;5553;48.506;8.870;2023-03-15T11:38:43;96439.03;;;6.08;79.18
11001;BME280;5553;48.506;8.870;2023-03-15T11:41:25;96416.09;;;5.69;77.86
11001;BME280;5553;48.506;8.870;2023-03-15T11:44:02;96418.41;;;5.73;77.63
11001;BME280;5553;48.506;8.870;2023-03-15T11:46:38;96397.44;;;5.56;76.82
11001;BME280;5553;48.506;8.870;2023-03-15T11:49:12;96421.66;;;5.91;79.09
11001;BME280;5553;48.506;8.870;2023-03-15T11:51:42;96426.53;;;6.51;79.22
11001;BME280;5553;48.506;8.870;2023-03-15T11:54:13;96394.88;;;6.53;75.58
11001;BME280;5553;48.506;8.870;2023-03-15T11:56:50;96394.28;;;6.34;76.62
11001;BME280;5553;48.506;8.870;2023-03-15T11:59:24;96389.78;;;5.71;76.74
11001;BME280;5553;48.506;8.870;2023-03-15T12:01:57;96384.34;;;5.56;75.34
11001;BME280;5553;48.506;8.870;2023-03-15T12:04:49;96406.94;;;5.82;77.74
11001;BME280;5553;48.506;8.870;2023-03-15T12:07:36;96416.63;;;6.06;77.86
11001;BME280;5553;48.506;8.870;2023-03-15T12:10:22;96374.88;;;5.72;73.61
11001;BME280;5553;48.506;8.870;2023-03-15T12:13:06;96375.22;;;5.85;74.33
11001;BME280;5553;48.506;8.870;2023-03-15T12:15:45;96423.44;;;6.48;76.81
11001;BME280;5553;48.506;8.870;2023-03-15T12:18:18;96376.03;;;5.85;73.31
11001;BME280;5553;48.506;8.870;2023-03-15T12:20:55;96375.38;;;5.51;74.50
11001;BME280;5553;48.506;8.870;2023-03-15T12:23:33;96390.91;;;5.52;75.70
11001;BME280;5553;48.506;8.870;2023-03-15T12:26:06;96394.00;;;5.47;75.91
11001;BME280;5553;48.506;8.870;2023-03-15T12:28:40;96388.13;;;5.45;76.55
11001;BME280;5553;48.506;8.870;2023-03-15T12:31:12;96371.09;;;5.33;74.56
11001;BME280;5553;48.506;8.870;2023-03-15T12:33:46;96367.34;;;5.44;74.21
11001;BME280;5553;48.506;8.870;2023-03-15T12:36:28;96375.19;;;5.52;75.55
11001;BME280;5553;48.506;8.870;2023-03-15T12:39:01;96395.44;;;6.32;75.75
11001;BME280;5553;48.506;8.870;2023-03-15T12:41:36;96392.94;;;6.94;74.94
11001;BME280;5553;48.506;8.870;2023-03-15T12:44:23;96357.66;;;6.65;71.87
11001;BME280;5553;48.506;8.870;2023-03-15T12:46:56;96387.50;;;6.64;74.46
11001;BME280;5553;48.506;8.870;2023-03-15T12:49:31;96345.03;;;7.00;70.38
11001;BME280;5553;48.506;8.870;2023-03-15T12:52:02;96347.06;;;6.90;70.63
11001;BME280;5553;48.506;8.870;2023-03-15T12:54:38;96373.97;;;6.45;73.95
11001;BME280;5553;48.506;8.870;2023-03-15T12:57:09;96346.41;;;5.60;72.76
11001;BME280;5553;48.506;8.870;2023-03-15T12:59:49;96379.13;;;5.97;74.08
11001;BME280;5553;48.506;8.870;2023-03-15T13:02:24;96392.56;;;6.02;75.71
11001;BME280;5553;48.506;8.870;2023-03-15T13:04:59;96371.94;;;5.58;73.60
11001;BME280;5553;48.506;8.870;2023-03-15T13:07:37;96377.31;;;5.57;73.97
11001;BME280;5553;48.506;8.870;2023-03-15T13:10:29;96354.59;;;5.49;71.57
11001;BME280;5553;48.506;8.870;2023-03-15T13:13:07;96367.97;;;5.87;72.54
11001;BME280;5553;48.506;8.870;2023-03-15T13:15:43;96384.38;;;5.89;74.05
11001;BME280;5553;48.506;8.870;2023-03-15T13:18:20;96365.38;;;5.79;72.34
11001;BME280;5553;48.506;8.870;2023-03-15T13:21:02;96359.81;;;5.49;71.74
11001;BME280;5553;48.506;8.870;2023-03-15T13:23:33;96348.38;;;5.34;71.18
11001;BME280;5553;48.506;8.870;2023-03-15T13:26:12;96351.00;;;5.42;71.57
11001;BME280;5553;48.506;8.870;2023-03-15T13:28:46;96347.56;;;5.41;71.13
11001;BME280;5553;48.506;8.870;2023-03-15T13:31:21;96362.59;;;5.31;72.71
11001;BME280;5553;48.506;8.870;2023-03-15T13:33:51;96340.81;;;5.14;71.04
11001;BME280;5553;48.506;8.870;2023-03-15T13:36:23;96332.13;;;5.06;71.24
11001;BME280;5553;48.506;8.870;2023-03-15T13:38:54;96380.25;;;5.29;74.20
11001;BME280;5553;48.506;8.870;2023-03-15T13:41:24;96377.81;;;5.68;74.14
11001;BME280;5553;48.506;8.870;2023-03-15T13:43:55;96364.31;;;6.37;71.02
11001;BME280;5553;48.506;8.870;2023-03-15T13:46:29;96329.88;;;5.60;69.10
11001;BME280;5553;48.506;8.870;2023-03-15T13:48:59;96351.16;;;5.73;71.20
11001;BME280;5553;48.506;8.870;2023-03-15T13:51:30;96381.75;;;5.64;73.63
11001;BME280;5553;48.506;8.870;2023-03-15T13:54:02;96372.09;;;6.61;71.93
11001;BME280;5553;48.506;8.870;2023-03-15T13:56:33;96380.91;;;6.13;72.75
11001;BME280;5553;48.506;8.870;2023-03-15T13:59:03;96423.91;;;7.30;74.75
11001;BME280;5553;48.506;8.870;2023-03-15T14:01:37;96397.00;;;7.05;73.03
11001;BME280;5553;48.506;8.870;2023-03-15T14:04:11;96384.22;;;5.99;73.00
11001;BME280;5553;48.506;8.870;2023-03-15T14:06:41;96411.03;;;5.68;77.17
11001;BME280;5553;48.506;8.870;2023-03-15T14:09:17;96443.38;;;5.42;79.38
11001;BME280;5553;48.506;8.870;2023-03-15T14:11:59;96424.75;;;5.37;77.53
11001;BME280;5553;48.506;8.870;2023-03-15T14:14:29;96435.38;;;5.60;78.50
11001;BME280;5553;48.506;8.870;2023-03-15T14:17:06;96430.31;;;5.67;78.02
11001;BME280;5553;48.506;8.870;2023-03-15T14:19:35;96429.19;;;5.69;78.18
11001;BME280;5553;48.506;8.870;2023-03-15T14:22:12;96448.19;;;6.21;79.95
11001;BME280;5553;48.506;8.870;2023-03-15T14:24:43;96437.06;;;6.10;80.60
11001;BME280;5553;48.506;8.870;2023-03-15T14:27:16;96429.03;;;5.79;79.34
11001;BME280;5553;48.506;8.870;2023-03-15T14:29:46;96424.94;;;5.68;78.33
11001;BME280;5553;48.506;8.870;2023-03-15T15:18:51;96528.53;;;4.16;95.09
11001;BME280;5553;48.506;8.870;2023-03-15T15:21:22;96544.53;;;4.39;98.54
11001;BME280;5553;48.506;8.870;2023-03-15T15:23:52;96548.34;;;4.71;97.89
11001;BME280;5553;48.506;8.870;2023-03-15T15:26:22;96544.88;;;4.62;98.17
11001;BME280;5553;48.506;8.870;2023-03-15T15:28:51;96545.34;;;4.40;97.74
11001;BME280;5553;48.506;8.870;2023-03-15T15:31:22;96562.06;;;4.47;99.30
11001;BME280;5553;48.506;8.870;2023-03-15T15:33:54;96557.03;;;4.27;100.00
11001;BME280;5553;48.506;8.870;2023-03-15T15:36:24;96554.03;;;4.22;100.00